EGPK/PIK METAR and TAF weather

Enter ICAO airport designator
Station Type Date Time Source
EGPK METAR 2020/07/15 09:20 UTC NOAA

EGPK 150920Z 25009KT 9999 SCT007 BKN021 14/12 Q1013


Station Type Date Time Source
EGPK Decoded METAR 2020/07/15 09:20 UTC NOAA

Prestwick Airport, United Kingdom (EGPK) 55-30N 004-35W 0M
Jul 15, 2020 - 05:20 AM EDT / 2020.07.15 0920 UTC
Wind: from the WSW (250 degrees) at 10 MPH (9 KT):0
Visibility: greater than 7 mile(s):0
Sky conditions: mostly cloudy
Temperature: 57 F (14 C)
Dew Point: 53 F (12 C)
Relative Humidity: 87%
Pressure (altimeter): 29.91 in. Hg (1013 hPa)
ob: EGPK 150920Z 25009KT 9999 SCT007 BKN021 14/12 Q1013
cycle: 9

Station Type Date Time Source
EGPK TAF 2020/07/15 06:09 UTC NOAA

TAF EGPK 150456Z 1506/1606 26009KT 9999 SCT008 BKN020
TEMPO 1506/1606 7000 -RADZ BKN008 PROB30
TEMPO 1506/1606 3000 RADZ BKN004

Example: see airport list